createdAt,value
2023-01-18T00:04:38.911Z,20.38
2023-01-18T00:09:40.340Z,20.16
2023-01-18T00:14:41.802Z,20.18
2023-01-18T00:19:43.655Z,20.18
2023-01-18T00:24:45.050Z,20.25
2023-01-18T00:29:46.415Z,20.14
2023-01-18T00:34:50.367Z,20.16
2023-01-18T00:39:51.886Z,20.00
2023-01-18T00:44:53.295Z,20.29
2023-01-18T00:49:54.669Z,20.32
2023-01-18T00:54:56.213Z,20.03
2023-01-18T00:59:57.578Z,19.97
2023-01-18T01:05:17.245Z,19.94
2023-01-18T01:10:18.636Z,20.06
2023-01-18T01:15:38.617Z,20.16
2023-01-18T01:20:58.274Z,19.96
2023-01-18T01:26:08.920Z,19.93
2023-01-18T01:31:12.042Z,20.14
2023-01-18T01:36:17.993Z,20.28
2023-01-18T01:41:30.323Z,20.17
2023-01-18T01:46:53.469Z,20.02
2023-01-18T01:52:00.209Z,20.35
2023-01-18T01:57:10.759Z,20.26
2023-01-18T02:02:12.244Z,20.13
2023-01-18T02:07:13.765Z,20.28
2023-01-18T02:12:15.143Z,20.40
2023-01-18T02:17:44.417Z,20.21
2023-01-18T02:23:22.745Z,20.33
2023-01-18T02:28:25.446Z,20.66
2023-01-18T02:33:31.855Z,20.63
2023-01-18T02:38:41.049Z,20.85
2023-01-18T02:44:01.390Z,20.79
2023-01-18T02:49:18.300Z,20.96
2023-01-18T02:54:24.208Z,20.88
2023-01-18T02:59:32.383Z,20.83
2023-01-18T03:04:45.333Z,20.63
2023-01-18T03:09:46.721Z,20.82
2023-01-18T03:14:55.439Z,20.88
2023-01-18T03:20:09.015Z,20.70
2023-01-18T03:25:11.129Z,20.92
2023-01-18T03:30:31.394Z,20.89
2023-01-18T03:35:32.765Z,20.94
2023-01-18T03:40:35.423Z,21.17
2023-01-18T03:45:43.652Z,21.26
2023-01-18T03:50:52.271Z,20.94
2023-01-18T03:55:56.715Z,21.14
2023-01-18T04:00:58.286Z,21.32
2023-01-18T04:06:00.681Z,21.19
2023-01-18T04:11:02.089Z,21.24
2023-01-18T04:16:04.788Z,21.36
2023-01-18T04:21:06.235Z,21.43
2023-01-18T04:26:07.617Z,21.42
2023-01-18T04:31:09.065Z,21.38
2023-01-18T04:36:10.486Z,21.69
2023-01-18T04:41:11.954Z,21.78
2023-01-18T04:46:14.588Z,21.85
2023-01-18T04:51:16.028Z,21.89
2023-01-18T04:56:17.529Z,21.93
2023-01-18T05:01:18.975Z,22.17
2023-01-18T05:06:20.532Z,22.08
2023-01-18T05:11:23.168Z,22.07
2023-01-18T05:16:24.726Z,22.20
2023-01-18T05:21:26.460Z,22.46
2023-01-18T05:26:27.914Z,22.68
2023-01-18T05:31:29.371Z,22.34
2023-01-18T05:36:30.815Z,22.45
2023-01-18T05:41:32.213Z,22.44
2023-01-18T05:46:33.594Z,22.56
2023-01-18T05:51:35.215Z,22.36
2023-01-18T05:56:37.030Z,22.71
2023-01-18T06:01:38.456Z,22.77
2023-01-18T06:06:39.866Z,22.99
2023-01-18T06:11:42.477Z,22.75
2023-01-18T06:16:43.882Z,22.56
2023-01-18T06:21:45.406Z,22.88
2023-01-18T06:26:46.814Z,23.02
2023-01-18T06:31:48.252Z,23.09
2023-01-18T06:36:49.664Z,22.98
2023-01-18T06:41:51.058Z,23.33
2023-01-18T06:46:52.432Z,23.41
2023-01-18T06:51:53.804Z,23.43
2023-01-18T06:56:55.190Z,23.54
2023-01-18T07:01:56.706Z,23.26
2023-01-18T07:06:58.673Z,23.45
2023-01-18T07:12:00.080Z,24.27
2023-01-18T07:17:01.598Z,24.42
2023-01-18T07:22:03.022Z,24.37
2023-01-18T07:27:04.976Z,24.35
2023-01-18T07:32:06.394Z,24.34
2023-01-18T07:37:07.808Z,24.20
2023-01-18T07:42:09.192Z,24.36
2023-01-18T07:47:10.563Z,24.24
2023-01-18T07:52:11.949Z,23.95
2023-01-18T07:57:13.501Z,23.91
2023-01-18T08:02:14.988Z,24.43
2023-01-18T08:07:17.723Z,24.97
2023-01-18T08:12:19.103Z,24.62
2023-01-18T08:17:20.485Z,24.62
2023-01-18T08:22:21.949Z,24.94
2023-01-18T08:27:24.316Z,25.02
2023-01-18T08:32:27.174Z,25.26
2023-01-18T08:37:28.601Z,24.91
2023-01-18T08:42:30.005Z,25.01
2023-01-18T08:47:31.389Z,24.90
2023-01-18T08:52:34.782Z,24.54
2023-01-18T08:57:36.182Z,24.76
2023-01-18T09:02:37.637Z,25.04
2023-01-18T09:07:39.038Z,25.48
2023-01-18T09:12:40.558Z,24.76
2023-01-18T09:17:42.072Z,24.47
2023-01-18T09:22:44.489Z,24.58
2023-01-18T09:27:46.478Z,24.44
2023-01-18T09:32:47.891Z,24.34
2023-01-18T09:37:49.271Z,24.24
2023-01-18T09:42:51.257Z,24.23
2023-01-18T09:47:55.195Z,24.00
2023-01-18T09:53:17.612Z,23.97
2023-01-18T09:58:37.371Z,23.95
2023-01-18T10:03:58.794Z,24.02
2023-01-18T10:09:07.331Z,23.90
2023-01-18T10:14:33.115Z,24.27
2023-01-18T10:19:34.491Z,24.79
2023-01-18T10:24:41.507Z,24.76
2023-01-18T10:30:06.049Z,24.62
2023-01-18T10:35:15.127Z,25.12
2023-01-18T10:40:16.622Z,24.79
2023-01-18T10:45:21.467Z,24.67
2023-01-18T10:50:37.126Z,24.93
2023-01-18T10:55:38.738Z,25.01
2023-01-18T11:00:40.248Z,24.50
2023-01-18T11:05:44.245Z,24.27
2023-01-18T11:10:45.786Z,24.21
2023-01-18T11:15:47.179Z,24.38
2023-01-18T11:20:49.964Z,24.31
2023-01-18T11:25:52.677Z,24.31
2023-01-18T11:31:08.866Z,24.01
2023-01-18T11:36:10.240Z,23.89
2023-01-18T11:41:19.482Z,23.84
2023-01-18T11:46:35.095Z,23.78
2023-01-18T11:51:43.684Z,23.73
2023-01-18T11:56:50.920Z,23.66
2023-01-18T12:02:17.300Z,23.50
2023-01-18T12:07:34.849Z,23.59
2023-01-18T12:12:57.998Z,23.56
2023-01-18T12:18:24.647Z,23.49
2023-01-18T12:23:44.358Z,23.39
2023-01-18T12:28:50.362Z,23.41
2023-01-18T12:34:14.004Z,24.10
2023-01-18T12:39:39.817Z,24.64
2023-01-18T12:44:56.254Z,24.62
2023-01-18T12:49:57.626Z,24.82
2023-01-18T12:55:00.713Z,25.13
2023-01-18T13:00:14.222Z,25.53
2023-01-18T13:05:23.609Z,25.11
2023-01-18T13:10:25.903Z,24.78
2023-01-18T13:15:53.721Z,24.93
2023-01-18T13:21:27.545Z,24.56
2023-01-18T13:26:30.439Z,24.27
2023-01-18T13:31:31.916Z,24.05
2023-01-18T13:36:44.423Z,24.07
2023-01-18T13:42:04.214Z,23.87
2023-01-18T13:47:42.126Z,23.84
2023-01-18T13:52:43.821Z,23.74
2023-01-18T13:57:45.199Z,23.72
2023-01-18T14:02:50.187Z,23.64
2023-01-18T14:07:58.884Z,23.57
2023-01-18T14:13:02.439Z,24.57
2023-01-18T14:18:04.130Z,24.72
2023-01-18T14:23:11.715Z,24.90
2023-01-18T14:28:14.931Z,25.12
2023-01-18T14:33:36.298Z,25.29
2023-01-18T14:38:37.873Z,25.12
2023-01-18T14:43:43.411Z,24.87
2023-01-18T14:48:57.206Z,24.64
2023-01-18T14:54:00.429Z,24.96
2023-01-18T14:59:11.619Z,24.84
2023-01-18T15:04:19.828Z,24.83
2023-01-18T15:09:21.610Z,24.88
2023-01-18T15:14:25.357Z,24.75
2023-01-18T15:19:38.397Z,24.71
2023-01-18T15:24:40.861Z,24.83
2023-01-18T15:29:46.831Z,24.75
2023-01-18T15:34:49.497Z,24.52
2023-01-18T15:39:56.665Z,24.17
2023-01-18T15:44:58.240Z,24.28
2023-01-18T15:50:00.561Z,23.89
2023-01-18T15:55:06.458Z,24.03
2023-01-18T16:00:31.914Z,23.85
2023-01-18T16:05:33.165Z,23.86
2023-01-18T16:10:34.693Z,24.05
2023-01-18T16:15:36.125Z,23.79
2023-01-18T16:20:37.521Z,23.93
2023-01-18T16:25:38.989Z,23.73
2023-01-18T16:30:40.410Z,23.80
2023-01-18T16:35:42.097Z,24.14
2023-01-18T16:40:45.080Z,24.35
2023-01-18T16:45:47.987Z,24.13
2023-01-18T16:50:49.414Z,24.19
2023-01-18T16:55:50.802Z,24.17
2023-01-18T17:01:14.130Z,24.09
2023-01-18T17:06:18.043Z,24.22
2023-01-18T17:11:19.421Z,24.09
2023-01-18T17:16:20.816Z,24.12
2023-01-18T17:21:22.345Z,24.33
2023-01-18T17:26:23.872Z,24.34
2023-01-18T17:31:25.255Z,24.00
2023-01-18T17:36:26.688Z,24.08
2023-01-18T17:41:29.262Z,24.27
2023-01-18T17:46:32.126Z,24.24
2023-01-18T17:51:35.382Z,24.06
2023-01-18T17:56:37.132Z,24.14
2023-01-18T18:01:38.596Z,23.96
2023-01-18T18:06:46.033Z,23.96
2023-01-18T18:11:51.186Z,24.08
2023-01-18T18:16:52.712Z,23.56
2023-01-18T18:21:54.163Z,23.60
2023-01-18T18:26:55.650Z,23.45
2023-01-18T18:31:57.062Z,23.90
2023-01-18T18:36:58.469Z,23.87
2023-01-18T18:42:00.299Z,23.67
2023-01-18T18:47:03.391Z,23.78
2023-01-18T18:52:05.911Z,23.75
2023-01-18T18:57:07.433Z,23.71
2023-01-18T19:02:13.248Z,23.41
2023-01-18T19:07:17.249Z,23.47
2023-01-18T19:12:18.644Z,23.64
2023-01-18T19:17:29.717Z,23.62
2023-01-18T19:22:32.409Z,23.34
2023-01-18T19:27:34.086Z,23.34
2023-01-18T19:32:35.990Z,23.61
2023-01-18T19:37:37.422Z,23.49
2023-01-18T19:42:38.869Z,23.10
2023-01-18T19:47:41.220Z,22.95
2023-01-18T19:52:43.062Z,23.11
2023-01-18T19:57:44.586Z,23.27
2023-01-18T20:02:46.058Z,22.91
2023-01-18T20:07:47.810Z,22.74
2023-01-18T20:12:49.477Z,23.03
2023-01-18T20:17:50.846Z,22.87
2023-01-18T20:22:52.214Z,23.12
2023-01-18T20:27:53.590Z,23.18
2023-01-18T20:32:55.168Z,23.01
2023-01-18T20:37:56.644Z,22.72
2023-01-18T20:42:58.830Z,22.85
2023-01-18T20:48:00.566Z,22.99
2023-01-18T20:53:02.332Z,22.74
2023-01-18T20:58:04.524Z,22.53
2023-01-18T21:03:05.999Z,23.09
2023-01-18T21:08:07.387Z,22.89
2023-01-18T21:13:09.357Z,22.84
2023-01-18T21:18:10.762Z,22.74
2023-01-18T21:23:12.147Z,22.73
2023-01-18T21:28:13.531Z,23.14
2023-01-18T21:33:14.908Z,22.68
2023-01-18T21:38:16.497Z,22.43
2023-01-18T21:43:37.424Z,22.53
2023-01-18T21:48:38.834Z,22.58
2023-01-18T21:54:01.786Z,22.61
2023-01-18T21:59:03.210Z,22.44
2023-01-18T22:04:25.173Z,22.27
2023-01-18T22:09:27.411Z,22.32
2023-01-18T22:14:29.072Z,22.42
2023-01-18T22:19:30.468Z,22.32
2023-01-18T22:24:31.838Z,22.08
2023-01-18T22:29:33.321Z,22.12
2023-01-18T22:34:34.729Z,22.38
2023-01-18T22:39:36.129Z,22.20
2023-01-18T22:44:37.713Z,22.01
2023-01-18T22:49:39.115Z,21.87
2023-01-18T22:54:41.561Z,22.10
2023-01-18T22:59:42.986Z,22.04
2023-01-18T23:04:44.397Z,21.78
2023-01-18T23:09:45.778Z,21.75
2023-01-18T23:15:05.577Z,21.58
2023-01-18T23:20:08.325Z,21.70
2023-01-18T23:25:09.845Z,21.51
2023-01-18T23:30:11.707Z,21.33
2023-01-18T23:35:13.118Z,21.49
2023-01-18T23:40:32.978Z,21.25
2023-01-18T23:45:52.709Z,21.22
2023-01-18T23:51:12.422Z,21.14
2023-01-18T23:56:13.796Z,21.09
